sensor_id;sensor_type;location;lat;lon;timestamp;P1;durP1;ratioP1;P2;durP2;ratioP2
10977;SDS011;5542;48.272;10.794;2024-01-30T00:00:23;4.25;;;3.30;;
10977;SDS011;5542;48.272;10.794;2024-01-30T00:02:51;5.33;;;3.13;;
10977;SDS011;5542;48.272;10.794;2024-01-30T00:05:18;3.58;;;3.13;;
10977;SDS011;5542;48.272;10.794;2024-01-30T00:07:44;3.55;;;3.05;;
10977;SDS011;5542;48.272;10.794;2024-01-30T00:10:11;3.92;;;3.20;;
10977;SDS011;5542;48.272;10.794;2024-01-30T00:12:38;3.80;;;3.15;;
10977;SDS011;5542;48.272;10.794;2024-01-30T00:15:04;5.82;;;4.05;;
10977;SDS011;5542;48.272;10.794;2024-01-30T00:17:34;7.63;;;5.15;;
10977;SDS011;5542;48.272;10.794;2024-01-30T00:20:03;17.87;;;9.70;;
10977;SDS011;5542;48.272;10.794;2024-01-30T00:22:30;10.57;;;5.90;;
10977;SDS011;5542;48.272;10.794;2024-01-30T00:24:57;8.00;;;5.38;;
10977;SDS011;5542;48.272;10.794;2024-01-30T00:27:24;7.10;;;4.90;;
10977;SDS011;5542;48.272;10.794;2024-01-30T00:29:51;5.07;;;3.78;;
10977;SDS011;5542;48.272;10.794;2024-01-30T00:32:17;5.60;;;3.97;;
10977;SDS011;5542;48.272;10.794;2024-01-30T00:34:45;6.00;;;4.05;;
10977;SDS011;5542;48.272;10.794;2024-01-30T00:37:13;4.82;;;3.53;;
10977;SDS011;5542;48.272;10.794;2024-01-30T00:39:39;4.03;;;3.63;;
10977;SDS011;5542;48.272;10.794;2024-01-30T00:42:06;3.83;;;3.33;;
10977;SDS011;5542;48.272;10.794;2024-01-30T00:44:34;4.15;;;3.17;;
10977;SDS011;5542;48.272;10.794;2024-01-30T00:47:02;3.33;;;3.00;;
10977;SDS011;5542;48.272;10.794;2024-01-30T00:49:29;3.22;;;2.88;;
10977;SDS011;5542;48.272;10.794;2024-01-30T00:51:55;3.58;;;3.00;;
10977;SDS011;5542;48.272;10.794;2024-01-30T00:54:23;3.65;;;3.22;;
10977;SDS011;5542;48.272;10.794;2024-01-30T00:56:50;3.22;;;2.58;;
10977;SDS011;5542;48.272;10.794;2024-01-30T00:59:17;3.58;;;2.92;;
10977;SDS011;5542;48.272;10.794;2024-01-30T01:01:43;3.92;;;3.53;;
10977;SDS011;5542;48.272;10.794;2024-01-30T01:04:10;4.93;;;3.58;;
10977;SDS011;5542;48.272;10.794;2024-01-30T01:06:36;3.80;;;3.40;;
10977;SDS011;5542;48.272;10.794;2024-01-30T01:09:03;4.80;;;3.90;;
10977;SDS011;5542;48.272;10.794;2024-01-30T01:11:31;5.13;;;3.80;;
10977;SDS011;5542;48.272;10.794;2024-01-30T01:13:58;4.05;;;3.63;;
10977;SDS011;5542;48.272;10.794;2024-01-30T01:16:24;4.28;;;3.88;;
10977;SDS011;5542;48.272;10.794;2024-01-30T01:18:51;3.30;;;3.00;;
10977;SDS011;5542;48.272;10.794;2024-01-30T01:21:17;4.03;;;3.17;;
10977;SDS011;5542;48.272;10.794;2024-01-30T01:23:44;3.35;;;3.00;;
10977;SDS011;5542;48.272;10.794;2024-01-30T01:26:11;3.65;;;3.15;;
10977;SDS011;5542;48.272;10.794;2024-01-30T01:28:40;3.35;;;3.05;;
10977;SDS011;5542;48.272;10.794;2024-01-30T01:31:07;2.80;;;2.60;;
10977;SDS011;5542;48.272;10.794;2024-01-30T01:33:33;4.57;;;3.22;;
10977;SDS011;5542;48.272;10.794;2024-01-30T01:36:02;2.95;;;2.75;;
10977;SDS011;5542;48.272;10.794;2024-01-30T01:38:29;3.00;;;2.67;;
10977;SDS011;5542;48.272;10.794;2024-01-30T01:40:55;3.47;;;3.10;;
10977;SDS011;5542;48.272;10.794;2024-01-30T01:43:22;3.80;;;3.00;;
10977;SDS011;5542;48.272;10.794;2024-01-30T01:45:50;3.40;;;3.10;;
10977;SDS011;5542;48.272;10.794;2024-01-30T01:48:16;3.30;;;3.00;;
10977;SDS011;5542;48.272;10.794;2024-01-30T01:50:43;3.40;;;3.03;;
10977;SDS011;5542;48.272;10.794;2024-01-30T01:53:10;4.10;;;3.33;;
10977;SDS011;5542;48.272;10.794;2024-01-30T01:55:38;3.58;;;3.28;;
10977;SDS011;5542;48.272;10.794;2024-01-30T01:58:05;4.18;;;3.58;;
10977;SDS011;5542;48.272;10.794;2024-01-30T02:00:33;4.28;;;3.10;;
10977;SDS011;5542;48.272;10.794;2024-01-30T02:03:05;3.47;;;3.17;;
10977;SDS011;5542;48.272;10.794;2024-01-30T02:05:33;3.53;;;3.22;;
10977;SDS011;5542;48.272;10.794;2024-01-30T02:08:00;4.18;;;3.28;;
10977;SDS011;5542;48.272;10.794;2024-01-30T02:10:27;4.27;;;3.60;;
10977;SDS011;5542;48.272;10.794;2024-01-30T02:12:54;3.47;;;3.05;;
10977;SDS011;5542;48.272;10.794;2024-01-30T02:15:21;3.50;;;3.13;;
10977;SDS011;5542;48.272;10.794;2024-01-30T02:17:47;2.88;;;2.65;;
10977;SDS011;5542;48.272;10.794;2024-01-30T02:20:15;3.60;;;3.30;;
10977;SDS011;5542;48.272;10.794;2024-01-30T02:22:43;3.25;;;2.95;;
10977;SDS011;5542;48.272;10.794;2024-01-30T02:25:10;3.58;;;2.90;;
10977;SDS011;5542;48.272;10.794;2024-01-30T02:27:37;3.35;;;3.00;;
10977;SDS011;5542;48.272;10.794;2024-01-30T02:30:04;3.70;;;3.00;;
10977;SDS011;5542;48.272;10.794;2024-01-30T02:32:31;4.00;;;3.22;;
10977;SDS011;5542;48.272;10.794;2024-01-30T02:34:58;3.40;;;3.10;;
10977;SDS011;5542;48.272;10.794;2024-01-30T02:37:25;4.35;;;3.67;;
10977;SDS011;5542;48.272;10.794;2024-01-30T02:39:52;3.93;;;3.57;;
10977;SDS011;5542;48.272;10.794;2024-01-30T02:42:19;4.30;;;3.90;;
10977;SDS011;5542;48.272;10.794;2024-01-30T02:44:46;5.53;;;4.15;;
10977;SDS011;5542;48.272;10.794;2024-01-30T02:47:13;5.90;;;3.60;;
10977;SDS011;5542;48.272;10.794;2024-01-30T02:49:39;3.40;;;3.10;;
10977;SDS011;5542;48.272;10.794;2024-01-30T02:52:06;3.83;;;3.15;;
10977;SDS011;5542;48.272;10.794;2024-01-30T02:54:32;3.65;;;3.28;;
10977;SDS011;5542;48.272;10.794;2024-01-30T02:57:00;3.95;;;3.55;;
10977;SDS011;5542;48.272;10.794;2024-01-30T02:59:27;4.18;;;3.38;;
10977;SDS011;5542;48.272;10.794;2024-01-30T03:01:53;3.70;;;3.00;;
10977;SDS011;5542;48.272;10.794;2024-01-30T03:04:20;3.55;;;3.15;;
10977;SDS011;5542;48.272;10.794;2024-01-30T03:06:47;3.45;;;3.15;;
10977;SDS011;5542;48.272;10.794;2024-01-30T03:09:15;3.50;;;3.20;;
10977;SDS011;5542;48.272;10.794;2024-01-30T03:11:42;3.42;;;3.13;;
10977;SDS011;5542;48.272;10.794;2024-01-30T03:14:10;3.22;;;2.80;;
10977;SDS011;5542;48.272;10.794;2024-01-30T03:16:37;4.68;;;3.25;;
10977;SDS011;5542;48.272;10.794;2024-01-30T03:19:05;4.13;;;3.37;;
10977;SDS011;5542;48.272;10.794;2024-01-30T03:21:32;5.00;;;3.28;;
10977;SDS011;5542;48.272;10.794;2024-01-30T03:23:59;3.15;;;2.88;;
10977;SDS011;5542;48.272;10.794;2024-01-30T03:26:25;3.13;;;2.83;;
10977;SDS011;5542;48.272;10.794;2024-01-30T03:28:52;3.23;;;2.93;;
10977;SDS011;5542;48.272;10.794;2024-01-30T03:31:20;2.65;;;2.45;;
10977;SDS011;5542;48.272;10.794;2024-01-30T03:33:47;2.85;;;2.65;;
10977;SDS011;5542;48.272;10.794;2024-01-30T03:36:14;3.40;;;2.85;;
10977;SDS011;5542;48.272;10.794;2024-01-30T03:38:41;2.95;;;2.47;;
10977;SDS011;5542;48.272;10.794;2024-01-30T03:41:08;3.80;;;2.90;;
10977;SDS011;5542;48.272;10.794;2024-01-30T03:43:35;3.78;;;3.28;;
10977;SDS011;5542;48.272;10.794;2024-01-30T03:46:02;3.15;;;2.85;;
10977;SDS011;5542;48.272;10.794;2024-01-30T03:48:30;3.25;;;2.95;;
10977;SDS011;5542;48.272;10.794;2024-01-30T03:50:57;4.13;;;3.50;;
10977;SDS011;5542;48.272;10.794;2024-01-30T03:53:23;3.25;;;2.95;;
10977;SDS011;5542;48.272;10.794;2024-01-30T03:55:50;3.13;;;2.90;;
10977;SDS011;5542;48.272;10.794;2024-01-30T03:58:17;5.10;;;4.03;;
10977;SDS011;5542;48.272;10.794;2024-01-30T04:00:43;19.58;;;9.73;;
10977;SDS011;5542;48.272;10.794;2024-01-30T04:03:10;48.58;;;20.58;;
10977;SDS011;5542;48.272;10.794;2024-01-30T04:05:38;23.38;;;11.50;;
10977;SDS011;5542;48.272;10.794;2024-01-30T04:08:05;11.75;;;6.65;;
10977;SDS011;5542;48.272;10.794;2024-01-30T04:10:32;14.82;;;7.20;;
10977;SDS011;5542;48.272;10.794;2024-01-30T04:12:59;22.25;;;10.90;;
10977;SDS011;5542;48.272;10.794;2024-01-30T04:15:25;40.72;;;17.83;;
10977;SDS011;5542;48.272;10.794;2024-01-30T04:17:53;37.65;;;17.48;;
10977;SDS011;5542;48.272;10.794;2024-01-30T04:20:19;40.85;;;18.25;;
10977;SDS011;5542;48.272;10.794;2024-01-30T04:22:47;41.60;;;19.00;;
10977;SDS011;5542;48.272;10.794;2024-01-30T04:25:14;64.03;;;27.77;;
10977;SDS011;5542;48.272;10.794;2024-01-30T04:27:40;41.20;;;19.83;;
10977;SDS011;5542;48.272;10.794;2024-01-30T04:30:07;26.73;;;13.55;;
10977;SDS011;5542;48.272;10.794;2024-01-30T04:32:35;41.20;;;20.13;;
10977;SDS011;5542;48.272;10.794;2024-01-30T04:35:01;80.78;;;34.70;;
10977;SDS011;5542;48.272;10.794;2024-01-30T04:37:28;49.95;;;22.90;;
10977;SDS011;5542;48.272;10.794;2024-01-30T04:39:56;41.95;;;19.95;;
10977;SDS011;5542;48.272;10.794;2024-01-30T04:42:23;37.03;;;16.13;;
10977;SDS011;5542;48.272;10.794;2024-01-30T04:44:49;26.25;;;12.27;;
10977;SDS011;5542;48.272;10.794;2024-01-30T04:47:16;21.02;;;11.00;;
10977;SDS011;5542;48.272;10.794;2024-01-30T04:49:43;15.43;;;8.05;;
10977;SDS011;5542;48.272;10.794;2024-01-30T04:52:09;13.80;;;7.65;;
10977;SDS011;5542;48.272;10.794;2024-01-30T04:54:36;16.93;;;8.77;;
10977;SDS011;5542;48.272;10.794;2024-01-30T04:57:04;23.02;;;10.65;;
10977;SDS011;5542;48.272;10.794;2024-01-30T04:59:34;19.40;;;9.52;;
10977;SDS011;5542;48.272;10.794;2024-01-30T05:02:01;15.27;;;8.18;;
10977;SDS011;5542;48.272;10.794;2024-01-30T05:04:28;15.98;;;8.10;;
10977;SDS011;5542;48.272;10.794;2024-01-30T05:06:54;16.60;;;7.57;;
10977;SDS011;5542;48.272;10.794;2024-01-30T05:09:21;11.38;;;6.38;;
10977;SDS011;5542;48.272;10.794;2024-01-30T05:11:47;8.88;;;5.50;;
10977;SDS011;5542;48.272;10.794;2024-01-30T05:14:15;9.80;;;5.32;;
10977;SDS011;5542;48.272;10.794;2024-01-30T05:16:43;7.78;;;4.72;;
10977;SDS011;5542;48.272;10.794;2024-01-30T05:19:12;7.13;;;4.50;;
10977;SDS011;5542;48.272;10.794;2024-01-30T05:21:39;6.50;;;4.35;;
10977;SDS011;5542;48.272;10.794;2024-01-30T05:24:06;6.18;;;4.05;;
10977;SDS011;5542;48.272;10.794;2024-01-30T05:26:34;6.40;;;4.10;;
10977;SDS011;5542;48.272;10.794;2024-01-30T05:29:01;6.67;;;4.03;;
10977;SDS011;5542;48.272;10.794;2024-01-30T05:31:29;5.57;;;4.30;;
10977;SDS011;5542;48.272;10.794;2024-01-30T05:33:56;5.28;;;3.95;;
10977;SDS011;5542;48.272;10.794;2024-01-30T05:36:22;6.32;;;4.30;;
10977;SDS011;5542;48.272;10.794;2024-01-30T05:38:49;4.82;;;4.10;;
10977;SDS011;5542;48.272;10.794;2024-01-30T05:41:15;4.32;;;3.92;;
10977;SDS011;5542;48.272;10.794;2024-01-30T05:43:42;7.45;;;4.80;;
10977;SDS011;5542;48.272;10.794;2024-01-30T05:46:09;7.30;;;5.18;;
10977;SDS011;5542;48.272;10.794;2024-01-30T05:48:37;5.93;;;4.90;;
10977;SDS011;5542;48.272;10.794;2024-01-30T05:51:04;5.43;;;4.22;;
10977;SDS011;5542;48.272;10.794;2024-01-30T05:53:31;5.80;;;4.50;;
10977;SDS011;5542;48.272;10.794;2024-01-30T05:55:57;7.55;;;5.55;;
10977;SDS011;5542;48.272;10.794;2024-01-30T05:58:24;6.32;;;4.97;;
10977;SDS011;5542;48.272;10.794;2024-01-30T06:00:50;5.22;;;4.38;;
10977;SDS011;5542;48.272;10.794;2024-01-30T06:03:17;4.72;;;4.13;;
10977;SDS011;5542;48.272;10.794;2024-01-30T06:05:45;4.20;;;3.80;;
10977;SDS011;5542;48.272;10.794;2024-01-30T06:08:11;4.05;;;3.65;;
10977;SDS011;5542;48.272;10.794;2024-01-30T06:10:38;4.05;;;3.20;;
10977;SDS011;5542;48.272;10.794;2024-01-30T06:13:05;3.90;;;3.42;;
10977;SDS011;5542;48.272;10.794;2024-01-30T06:15:32;3.73;;;3.07;;
10977;SDS011;5542;48.272;10.794;2024-01-30T06:17:58;2.60;;;2.40;;
10977;SDS011;5542;48.272;10.794;2024-01-30T06:20:25;3.03;;;2.75;;
10977;SDS011;5542;48.272;10.794;2024-01-30T06:22:53;2.80;;;2.60;;
10977;SDS011;5542;48.272;10.794;2024-01-30T06:25:20;2.87;;;2.37;;
10977;SDS011;5542;48.272;10.794;2024-01-30T06:27:46;3.63;;;3.33;;
10977;SDS011;5542;48.272;10.794;2024-01-30T06:30:13;3.63;;;3.17;;
10977;SDS011;5542;48.272;10.794;2024-01-30T06:32:40;3.97;;;3.60;;
10977;SDS011;5542;48.272;10.794;2024-01-30T06:35:08;3.90;;;3.58;;
10977;SDS011;5542;48.272;10.794;2024-01-30T06:37:35;3.78;;;3.40;;
10977;SDS011;5542;48.272;10.794;2024-01-30T06:40:04;4.22;;;3.45;;
10977;SDS011;5542;48.272;10.794;2024-01-30T06:42:31;3.35;;;3.05;;
10977;SDS011;5542;48.272;10.794;2024-01-30T06:44:57;28.63;;;18.85;;
10977;SDS011;5542;48.272;10.794;2024-01-30T06:47:24;10.07;;;7.35;;
10977;SDS011;5542;48.272;10.794;2024-01-30T06:49:51;5.10;;;4.07;;
10977;SDS011;5542;48.272;10.794;2024-01-30T06:52:17;3.47;;;3.17;;
10977;SDS011;5542;48.272;10.794;2024-01-30T06:54:44;3.92;;;2.92;;
10977;SDS011;5542;48.272;10.794;2024-01-30T06:57:12;2.97;;;2.67;;
10977;SDS011;5542;48.272;10.794;2024-01-30T06:59:39;3.42;;;2.97;;
10977;SDS011;5542;48.272;10.794;2024-01-30T07:02:08;3.63;;;3.33;;
10977;SDS011;5542;48.272;10.794;2024-01-30T07:04:35;5.10;;;3.47;;
10977;SDS011;5542;48.272;10.794;2024-01-30T07:07:02;4.00;;;3.60;;
10977;SDS011;5542;48.272;10.794;2024-01-30T07:09:29;4.63;;;3.55;;
10977;SDS011;5542;48.272;10.794;2024-01-30T07:11:56;5.28;;;4.05;;
10977;SDS011;5542;48.272;10.794;2024-01-30T07:14:24;6.32;;;4.65;;
10977;SDS011;5542;48.272;10.794;2024-01-30T07:16:51;5.05;;;4.32;;
10977;SDS011;5542;48.272;10.794;2024-01-30T07:19:18;4.63;;;4.10;;
10977;SDS011;5542;48.272;10.794;2024-01-30T07:21:44;8.00;;;5.53;;
10977;SDS011;5542;48.272;10.794;2024-01-30T07:24:11;8.80;;;6.20;;
10977;SDS011;5542;48.272;10.794;2024-01-30T07:26:37;7.60;;;5.00;;
10977;SDS011;5542;48.272;10.794;2024-01-30T07:29:04;4.00;;;3.60;;
10977;SDS011;5542;48.272;10.794;2024-01-30T07:31:32;4.43;;;3.70;;
10977;SDS011;5542;48.272;10.794;2024-01-30T07:33:58;8.05;;;5.32;;
10977;SDS011;5542;48.272;10.794;2024-01-30T07:36:25;4.68;;;3.35;;
10977;SDS011;5542;48.272;10.794;2024-01-30T07:38:52;3.42;;;3.13;;
10977;SDS011;5542;48.272;10.794;2024-01-30T07:41:19;6.28;;;4.70;;
10977;SDS011;5542;48.272;10.794;2024-01-30T07:43:46;6.40;;;4.93;;
10977;SDS011;5542;48.272;10.794;2024-01-30T07:46:12;8.15;;;4.80;;
10977;SDS011;5542;48.272;10.794;2024-01-30T07:48:40;11.02;;;6.28;;
10977;SDS011;5542;48.272;10.794;2024-01-30T07:51:07;30.00;;;13.55;;
10977;SDS011;5542;48.272;10.794;2024-01-30T07:53:33;84.15;;;28.52;;
10977;SDS011;5542;48.272;10.794;2024-01-30T07:56:00;112.07;;;34.80;;
10977;SDS011;5542;48.272;10.794;2024-01-30T07:58:27;96.93;;;29.10;;
10977;SDS011;5542;48.272;10.794;2024-01-30T08:00:54;80.88;;;26.63;;
10977;SDS011;5542;48.272;10.794;2024-01-30T08:03:23;58.80;;;20.42;;
10977;SDS011;5542;48.272;10.794;2024-01-30T08:05:51;64.00;;;22.73;;
10977;SDS011;5542;48.272;10.794;2024-01-30T08:08:17;57.80;;;21.30;;
10977;SDS011;5542;48.272;10.794;2024-01-30T08:10:44;63.88;;;22.60;;
10977;SDS011;5542;48.272;10.794;2024-01-30T08:13:10;80.72;;;32.65;;
10977;SDS011;5542;48.272;10.794;2024-01-30T08:15:37;53.42;;;22.83;;
10977;SDS011;5542;48.272;10.794;2024-01-30T08:18:04;22.40;;;11.40;;
10977;SDS011;5542;48.272;10.794;2024-01-30T08:20:32;21.27;;;13.15;;
10977;SDS011;5542;48.272;10.794;2024-01-30T08:23:00;14.07;;;8.32;;
10977;SDS011;5542;48.272;10.794;2024-01-30T08:25:26;41.85;;;19.80;;
10977;SDS011;5542;48.272;10.794;2024-01-30T08:27:53;25.05;;;12.95;;
10977;SDS011;5542;48.272;10.794;2024-01-30T08:30:19;26.58;;;13.68;;
10977;SDS011;5542;48.272;10.794;2024-01-30T08:32:46;11.52;;;6.50;;
10977;SDS011;5542;48.272;10.794;2024-01-30T08:35:13;15.10;;;9.57;;
10977;SDS011;5542;48.272;10.794;2024-01-30T08:37:41;4.00;;;3.58;;
10977;SDS011;5542;48.272;10.794;2024-01-30T08:40:09;3.50;;;2.90;;
10977;SDS011;5542;48.272;10.794;2024-01-30T08:42:36;3.25;;;2.85;;
10977;SDS011;5542;48.272;10.794;2024-01-30T08:45:04;4.72;;;3.70;;
10977;SDS011;5542;48.272;10.794;2024-01-30T08:47:31;4.97;;;4.45;;
10977;SDS011;5542;48.272;10.794;2024-01-30T08:49:58;4.13;;;3.33;;
10977;SDS011;5542;48.272;10.794;2024-01-30T08:52:25;7.05;;;5.28;;
10977;SDS011;5542;48.272;10.794;2024-01-30T08:54:51;7.38;;;4.72;;
10977;SDS011;5542;48.272;10.794;2024-01-30T08:57:19;7.88;;;5.50;;
10977;SDS011;5542;48.272;10.794;2024-01-30T08:59:46;9.05;;;5.45;;
10977;SDS011;5542;48.272;10.794;2024-01-30T09:02:13;11.38;;;6.43;;
10977;SDS011;5542;48.272;10.794;2024-01-30T09:04:41;3.83;;;3.00;;
10977;SDS011;5542;48.272;10.794;2024-01-30T09:07:08;7.35;;;5.90;;
10977;SDS011;5542;48.272;10.794;2024-01-30T09:09:35;3.35;;;3.00;;
10977;SDS011;5542;48.272;10.794;2024-01-30T09:12:04;3.15;;;2.78;;
10977;SDS011;5542;48.272;10.794;2024-01-30T09:14:35;3.88;;;3.05;;
10977;SDS011;5542;48.272;10.794;2024-01-30T09:17:02;3.47;;;3.13;;
10977;SDS011;5542;48.272;10.794;2024-01-30T09:19:29;2.97;;;2.78;;
10977;SDS011;5542;48.272;10.794;2024-01-30T09:21:56;2.70;;;2.50;;
10977;SDS011;5542;48.272;10.794;2024-01-30T09:24:23;3.67;;;2.67;;
10977;SDS011;5542;48.272;10.794;2024-01-30T09:26:49;3.63;;;3.10;;
10977;SDS011;5542;48.272;10.794;2024-01-30T09:29:16;2.80;;;2.60;;
10977;SDS011;5542;48.272;10.794;2024-01-30T09:31:44;2.72;;;2.53;;
10977;SDS011;5542;48.272;10.794;2024-01-30T09:34:11;3.35;;;2.90;;
10977;SDS011;5542;48.272;10.794;2024-01-30T09:36:38;3.40;;;3.10;;
10977;SDS011;5542;48.272;10.794;2024-01-30T09:39:05;2.65;;;2.45;;
10977;SDS011;5542;48.272;10.794;2024-01-30T09:41:32;3.35;;;2.65;;
10977;SDS011;5542;48.272;10.794;2024-01-30T09:44:02;2.78;;;2.58;;
10977;SDS011;5542;48.272;10.794;2024-01-30T09:46:31;3.00;;;2.80;;
10977;SDS011;5542;48.272;10.794;2024-01-30T09:49:00;4.90;;;3.03;;
10977;SDS011;5542;48.272;10.794;2024-01-30T09:51:28;3.38;;;2.90;;
10977;SDS011;5542;48.272;10.794;2024-01-30T09:53:56;3.63;;;3.10;;
10977;SDS011;5542;48.272;10.794;2024-01-30T09:56:23;3.35;;;2.80;;
10977;SDS011;5542;48.272;10.794;2024-01-30T09:58:49;2.85;;;2.65;;
10977;SDS011;5542;48.272;10.794;2024-01-30T10:01:16;3.88;;;2.95;;
10977;SDS011;5542;48.272;10.794;2024-01-30T10:03:44;3.75;;;3.20;;
10977;SDS011;5542;48.272;10.794;2024-01-30T10:06:12;3.20;;;2.88;;
10977;SDS011;5542;48.272;10.794;2024-01-30T10:08:41;2.87;;;2.53;;
10977;SDS011;5542;48.272;10.794;2024-01-30T10:11:08;2.80;;;2.60;;
10977;SDS011;5542;48.272;10.794;2024-01-30T10:13:35;3.10;;;2.80;;
10977;SDS011;5542;48.272;10.794;2024-01-30T10:16:02;3.85;;;2.92;;
10977;SDS011;5542;48.272;10.794;2024-01-30T10:18:31;3.30;;;3.00;;
10977;SDS011;5542;48.272;10.794;2024-01-30T10:20:58;3.22;;;2.97;;
10977;SDS011;5542;48.272;10.794;2024-01-30T10:23:26;3.53;;;3.22;;
10977;SDS011;5542;48.272;10.794;2024-01-30T10:25:53;3.47;;;3.20;;
10977;SDS011;5542;48.272;10.794;2024-01-30T10:28:20;4.00;;;3.60;;
10977;SDS011;5542;48.272;10.794;2024-01-30T10:30:56;15.07;;;13.27;;
10977;SDS011;5542;48.272;10.794;2024-01-30T10:33:24;11.57;;;9.07;;
10977;SDS011;5542;48.272;10.794;2024-01-30T10:35:50;4.13;;;3.60;;
10977;SDS011;5542;48.272;10.794;2024-01-30T10:38:18;3.25;;;2.95;;
10977;SDS011;5542;48.272;10.794;2024-01-30T10:40:47;3.58;;;3.28;;
10977;SDS011;5542;48.272;10.794;2024-01-30T10:43:18;4.30;;;3.50;;
10977;SDS011;5542;48.272;10.794;2024-01-30T10:45:49;4.30;;;3.50;;
10977;SDS011;5542;48.272;10.794;2024-01-30T10:48:19;8.25;;;5.70;;
10977;SDS011;5542;48.272;10.794;2024-01-30T10:50:51;4.25;;;3.85;;
10977;SDS011;5542;48.272;10.794;2024-01-30T10:53:20;3.30;;;3.00;;
10977;SDS011;5542;48.272;10.794;2024-01-30T10:55:50;3.70;;;3.40;;
10977;SDS011;5542;48.272;10.794;2024-01-30T10:58:17;3.58;;;3.28;;
10977;SDS011;5542;48.272;10.794;2024-01-30T11:00:44;3.13;;;2.70;;
10977;SDS011;5542;48.272;10.794;2024-01-30T11:03:11;4.30;;;3.90;;
10977;SDS011;5542;48.272;10.794;2024-01-30T11:05:40;4.15;;;3.55;;
10977;SDS011;5542;48.272;10.794;2024-01-30T11:08:10;3.42;;;3.13;;
10977;SDS011;5542;48.272;10.794;2024-01-30T11:10:44;4.73;;;3.60;;
10977;SDS011;5542;48.272;10.794;2024-01-30T11:13:12;3.80;;;3.27;;
10977;SDS011;5542;48.272;10.794;2024-01-30T11:15:39;3.55;;;3.25;;
10977;SDS011;5542;48.272;10.794;2024-01-30T11:18:06;3.70;;;2.78;;
10977;SDS011;5542;48.272;10.794;2024-01-30T11:20:33;2.90;;;2.70;;
10977;SDS011;5542;48.272;10.794;2024-01-30T11:23:01;2.88;;;2.45;;
10977;SDS011;5542;48.272;10.794;2024-01-30T11:25:31;3.35;;;2.95;;
10977;SDS011;5542;48.272;10.794;2024-01-30T11:27:58;2.80;;;2.60;;
10977;SDS011;5542;48.272;10.794;2024-01-30T11:30:27;2.10;;;1.95;;
10977;SDS011;5542;48.272;10.794;2024-01-30T11:32:58;2.97;;;2.65;;
10977;SDS011;5542;48.272;10.794;2024-01-30T11:35:26;3.28;;;2.97;;
10977;SDS011;5542;48.272;10.794;2024-01-30T11:37:53;3.15;;;2.85;;
10977;SDS011;5542;48.272;10.794;2024-01-30T11:40:20;3.33;;;3.03;;
10977;SDS011;5542;48.272;10.794;2024-01-30T11:42:47;5.53;;;3.22;;
10977;SDS011;5542;48.272;10.794;2024-01-30T11:45:15;2.97;;;2.70;;
10977;SDS011;5542;48.272;10.794;2024-01-30T11:47:44;2.92;;;2.72;;
10977;SDS011;5542;48.272;10.794;2024-01-30T11:50:11;2.50;;;2.30;;
10977;SDS011;5542;48.272;10.794;2024-01-30T11:52:38;19.73;;;10.30;;
10977;SDS011;5542;48.272;10.794;2024-01-30T11:55:06;56.78;;;26.70;;
10977;SDS011;5542;48.272;10.794;2024-01-30T11:57:34;106.57;;;46.88;;
10977;SDS011;5542;48.272;10.794;2024-01-30T12:00:02;49.63;;;25.52;;
10977;SDS011;5542;48.272;10.794;2024-01-30T12:02:33;18.92;;;10.48;;
10977;SDS011;5542;48.272;10.794;2024-01-30T12:05:04;15.20;;;8.55;;
10977;SDS011;5542;48.272;10.794;2024-01-30T12:07:31;6.60;;;4.78;;
10977;SDS011;5542;48.272;10.794;2024-01-30T12:10:13;3.58;;;3.00;;
10977;SDS011;5542;48.272;10.794;2024-01-30T12:12:52;5.05;;;4.15;;
10977;SDS011;5542;48.272;10.794;2024-01-30T12:15:25;6.65;;;4.97;;
10977;SDS011;5542;48.272;10.794;2024-01-30T12:17:52;15.57;;;9.65;;
10977;SDS011;5542;48.272;10.794;2024-01-30T12:20:32;3.80;;;3.40;;
10977;SDS011;5542;48.272;10.794;2024-01-30T12:22:59;4.15;;;3.10;;
10977;SDS011;5542;48.272;10.794;2024-01-30T12:25:26;4.22;;;2.80;;
10977;SDS011;5542;48.272;10.794;2024-01-30T12:27:53;4.50;;;3.50;;
10977;SDS011;5542;48.272;10.794;2024-01-30T12:30:20;2.92;;;2.72;;
10977;SDS011;5542;48.272;10.794;2024-01-30T12:32:49;2.90;;;2.70;;
10977;SDS011;5542;48.272;10.794;2024-01-30T12:35:17;3.17;;;2.70;;
10977;SDS011;5542;48.272;10.794;2024-01-30T12:37:50;3.47;;;3.17;;
10977;SDS011;5542;48.272;10.794;2024-01-30T12:40:28;3.65;;;3.05;;
10977;SDS011;5542;48.272;10.794;2024-01-30T12:43:04;4.10;;;3.70;;
10977;SDS011;5542;48.272;10.794;2024-01-30T12:45:42;3.55;;;3.25;;
10977;SDS011;5542;48.272;10.794;2024-01-30T12:48:23;4.05;;;3.65;;
10977;SDS011;5542;48.272;10.794;2024-01-30T12:50:54;3.42;;;3.13;;
10977;SDS011;5542;48.272;10.794;2024-01-30T12:53:42;4.20;;;3.80;;
10977;SDS011;5542;48.272;10.794;2024-01-30T12:56:14;4.15;;;3.75;;
10977;SDS011;5542;48.272;10.794;2024-01-30T12:58:46;3.80;;;3.50;;
10977;SDS011;5542;48.272;10.794;2024-01-30T13:01:21;3.42;;;3.13;;
10977;SDS011;5542;48.272;10.794;2024-01-30T13:04:04;5.47;;;4.43;;
10977;SDS011;5542;48.272;10.794;2024-01-30T13:06:34;3.80;;;3.50;;
10977;SDS011;5542;48.272;10.794;2024-01-30T13:09:03;3.95;;;3.42;;
10977;SDS011;5542;48.272;10.794;2024-01-30T13:11:31;3.25;;;3.05;;
10977;SDS011;5542;48.272;10.794;2024-01-30T13:13:58;3.83;;;3.53;;
10977;SDS011;5542;48.272;10.794;2024-01-30T13:16:34;3.38;;;3.08;;
10977;SDS011;5542;48.272;10.794;2024-01-30T13:19:11;4.40;;;4.00;;
10977;SDS011;5542;48.272;10.794;2024-01-30T13:21:44;8.63;;;7.00;;
10977;SDS011;5542;48.272;10.794;2024-01-30T13:24:25;10.20;;;7.10;;
10977;SDS011;5542;48.272;10.794;2024-01-30T13:26:58;5.00;;;4.50;;
10977;SDS011;5542;48.272;10.794;2024-01-30T13:29:33;4.60;;;4.20;;
10977;SDS011;5542;48.272;10.794;2024-01-30T13:32:19;5.05;;;3.80;;
10977;SDS011;5542;48.272;10.794;2024-01-30T13:35:10;4.80;;;3.90;;
10977;SDS011;5542;48.272;10.794;2024-01-30T13:38:03;4.53;;;4.00;;
10977;SDS011;5542;48.272;10.794;2024-01-30T13:40:39;6.00;;;4.50;;
10977;SDS011;5542;48.272;10.794;2024-01-30T13:43:25;13.43;;;8.57;;
10977;SDS011;5542;48.272;10.794;2024-01-30T13:46:49;3.70;;;3.25;;
10977;SDS011;5542;48.272;10.794;2024-01-30T13:49:52;2.28;;;2.17;;
10977;SDS011;5542;48.272;10.794;2024-01-30T13:52:50;2.85;;;2.20;;
10977;SDS011;5542;48.272;10.794;2024-01-30T13:55:28;6.47;;;4.40;;
10977;SDS011;5542;48.272;10.794;2024-01-30T13:58:01;3.05;;;2.45;;
10977;SDS011;5542;48.272;10.794;2024-01-30T14:00:54;2.80;;;2.40;;
10977;SDS011;5542;48.272;10.794;2024-01-30T14:03:54;3.58;;;3.22;;
10977;SDS011;5542;48.272;10.794;2024-01-30T14:06:32;3.55;;;3.25;;
10977;SDS011;5542;48.272;10.794;2024-01-30T14:09:00;2.10;;;1.90;;
10977;SDS011;5542;48.272;10.794;2024-01-30T14:11:36;2.43;;;2.23;;
10977;SDS011;5542;48.272;10.794;2024-01-30T14:14:19;5.13;;;3.88;;
10977;SDS011;5542;48.272;10.794;2024-01-30T14:16:52;4.30;;;3.58;;
10977;SDS011;5542;48.272;10.794;2024-01-30T14:19:21;2.72;;;2.40;;
10977;SDS011;5542;48.272;10.794;2024-01-30T14:21:59;8.38;;;3.75;;
10977;SDS011;5542;48.272;10.794;2024-01-30T14:24:56;2.75;;;2.20;;
10977;SDS011;5542;48.272;10.794;2024-01-30T14:27:53;2.50;;;2.30;;
10977;SDS011;5542;48.272;10.794;2024-01-30T14:31:11;2.45;;;2.08;;
10977;SDS011;5542;48.272;10.794;2024-01-30T14:34:26;8.15;;;4.45;;
10977;SDS011;5542;48.272;10.794;2024-01-30T14:37:40;5.30;;;3.30;;
10977;SDS011;5542;48.272;10.794;2024-01-30T14:40:44;4.90;;;3.38;;
10977;SDS011;5542;48.272;10.794;2024-01-30T14:43:33;10.98;;;7.07;;
10977;SDS011;5542;48.272;10.794;2024-01-30T14:46:04;7.00;;;5.00;;
10977;SDS011;5542;48.272;10.794;2024-01-30T14:48:40;9.37;;;6.80;;
10977;SDS011;5542;48.272;10.794;2024-01-30T14:51:11;7.30;;;5.30;;
10977;SDS011;5542;48.272;10.794;2024-01-30T14:53:40;6.18;;;4.53;;
10977;SDS011;5542;48.272;10.794;2024-01-30T14:56:10;12.38;;;9.23;;